Time;durP1;ratioP1;P1;durP2;ratioP2;P2;SDS_P1;SDS_P2;PMS_P1;PMS_P2;Temp;Humidity;BMP_temperature;BMP_pressure;BME280_temperature;BME280_humidity;BME280_pressure;Samples;Min_cycle;Max_cycle;Signal;HPM_P1;HPM_P2
2022/07/30 00:02:21;;;;;;;;;;;;;;;27.76;64.27;101289.84;4978846;28;19914;-90
2022/07/30 00:04:48;;;;;;;;;;;;;;;27.67;64.24;101276.50;4980914;28;19914;-90
2022/07/30 00:07:14;;;;;;;;;;;;;;;27.76;64.29;101288.03;4969827;28;19980;-89
2022/07/30 00:09:41;;;;;;;;;;;;;;;27.75;64.44;101278.22;4980762;28;19921;-90
2022/07/30 00:12:08;;;;;;;;;;;;;;;27.75;64.20;101277.31;4998683;28;19925;-90
2022/07/30 00:14:36;;;;;;;;;;;;;;;27.74;64.16;101281.78;4998298;28;19914;-90
2022/07/30 00:17:01;;;;;;;;;;;;;;;27.73;64.53;101271.97;4998768;28;19914;-90
2022/07/30 00:19:27;;;;;;;;;;;;;;;27.74;64.32;101273.72;4980687;28;19929;-89
2022/07/30 00:21:53;;;;;;;;;;;;;;;27.73;64.45;101271.97;4998256;28;19964;-91
2022/07/30 00:24:19;;;;;;;;;;;;;;;27.74;64.39;101268.38;4979458;28;19914;-90
2022/07/30 00:26:44;;;;;;;;;;;;;;;27.74;64.32;101267.50;4965901;28;19973;-90
2022/07/30 00:29:12;;;;;;;;;;;;;;;27.74;64.18;101264.81;4971274;28;19960;-90
2022/07/30 00:31:37;;;;;;;;;;;;;;;27.72;64.41;101266.63;4980811;28;19949;-91
2022/07/30 00:34:04;;;;;;;;;;;;;;;27.74;64.30;101260.31;4981552;28;19953;-90
2022/07/30 00:36:31;;;;;;;;;;;;;;;27.75;64.16;101255.84;4997969;28;19914;-90
2022/07/30 00:38:57;;;;;;;;;;;;;;;27.76;64.11;101257.63;4978553;28;19914;-91
2022/07/30 00:41:24;;;;;;;;;;;;;;;27.71;64.53;101251.44;4982089;28;19914;-92
2022/07/30 00:43:51;;;;;;;;;;;;;;;27.71;64.25;101249.63;4981587;28;19956;-90
2022/07/30 00:46:20;;;;;;;;;;;;;;;27.69;64.45;101248.75;4981676;28;19914;-91
2022/07/30 00:48:48;;;;;;;;;;;;;;;27.67;64.39;101255.03;4996673;28;22506;-91
2022/07/30 00:51:14;;;;;;;;;;;;;;;27.66;64.34;101247.88;4946116;28;19976;-89
2022/07/30 00:53:49;;;;;;;;;;;;;;;27.64;64.36;101250.56;4974851;28;19922;-89
2022/07/30 00:56:14;;;;;;;;;;;;;;;27.67;64.38;101250.56;4961844;28;20079;-89
2022/07/30 00:58:41;;;;;;;;;;;;;;;27.64;64.40;101241.63;4946084;28;20384;-91
2022/07/30 01:01:07;;;;;;;;;;;;;;;27.65;64.04;101238.06;4943264;28;20010;-91
2022/07/30 01:03:33;;;;;;;;;;;;;;;27.65;64.12;101238.94;4958990;29;19970;-91
2022/07/30 01:05:59;;;;;;;;;;;;;;;27.64;63.98;101236.28;4931491;28;19918;-91
2022/07/30 01:08:25;;;;;;;;;;;;;;;27.64;64.22;101238.94;4957095;28;19925;-91
2022/07/30 01:10:50;;;;;;;;;;;;;;;27.61;64.22;101240.75;4938909;29;21888;-90
2022/07/30 01:13:16;;;;;;;;;;;;;;;27.59;64.19;101237.19;4932404;29;20340;-89
2022/07/30 01:15:41;;;;;;;;;;;;;;;27.60;64.03;101236.31;4936946;29;19914;-90
2022/07/30 01:18:09;;;;;;;;;;;;;;;27.63;64.27;101229.13;4939936;29;19918;-90
2022/07/30 01:20:40;;;;;;;;;;;;;;;27.62;64.15;101230.91;4955176;28;19918;-88
2022/07/30 01:23:24;;;;;;;;;;;;;;;27.60;64.38;101228.25;4958980;28;19938;-89
2022/07/30 01:26:09;;;;;;;;;;;;;;;27.64;64.03;101223.72;4958596;28;20008;-91
2022/07/30 01:28:35;;;;;;;;;;;;;;;27.64;64.35;101220.16;4948910;29;20439;-88
2022/07/30 01:31:00;;;;;;;;;;;;;;;27.64;63.89;101220.16;4956081;28;19941;-90
2022/07/30 01:33:26;;;;;;;;;;;;;;;27.60;64.02;101219.28;4942708;28;20383;-88
2022/07/30 01:35:51;;;;;;;;;;;;;;;27.61;63.80;101216.59;4940238;28;20001;-88
2022/07/30 01:38:20;;;;;;;;;;;;;;;27.59;63.80;101214.84;4956441;28;20003;-89
2022/07/30 01:40:47;;;;;;;;;;;;;;;27.59;63.99;101213.06;4944891;29;20304;-90
2022/07/30 01:43:12;;;;;;;;;;;;;;;27.56;63.82;101206.84;4928586;28;19915;-88
2022/07/30 01:45:38;;;;;;;;;;;;;;;27.56;64.10;101215.78;4945658;28;19914;-89
2022/07/30 01:48:04;;;;;;;;;;;;;;;27.55;63.99;101213.97;4943936;28;19921;-90
2022/07/30 01:50:30;;;;;;;;;;;;;;;27.57;63.86;101214.84;4973530;28;20001;-90
2022/07/30 01:52:55;;;;;;;;;;;;;;;27.60;63.76;101213.94;4985398;28;20011;-90
2022/07/30 01:55:42;;;;;;;;;;;;;;;27.58;63.85;101216.66;4961170;28;20395;-90
2022/07/30 01:58:09;;;;;;;;;;;;;;;27.57;63.77;101213.97;4994144;28;19922;-90
2022/07/30 02:00:35;;;;;;;;;;;;;;;27.56;63.64;101220.25;4958074;28;19918;-89
2022/07/30 02:03:02;;;;;;;;;;;;;;;27.55;63.87;101216.66;4953777;28;20032;-89
2022/07/30 02:05:28;;;;;;;;;;;;;;;27.53;64.00;101221.16;4952664;28;19913;-88
2022/07/30 02:08:03;;;;;;;;;;;;;;;27.52;63.84;101214.03;4976955;28;19914;-89
2022/07/30 02:10:31;;;;;;;;;;;;;;;27.54;63.86;101216.69;4979421;28;19914;-89
2022/07/30 02:12:59;;;;;;;;;;;;;;;27.53;63.77;101213.09;4957912;28;19918;-88
2022/07/30 02:15:25;;;;;;;;;;;;;;;27.53;63.68;101217.59;4961303;28;19925;-88
2022/07/30 02:18:00;;;;;;;;;;;;;;;27.53;64.02;101204.16;4984007;28;20281;-89
2022/07/30 02:20:26;;;;;;;;;;;;;;;27.50;63.65;101220.31;4979461;28;20016;-88
2022/07/30 02:22:52;;;;;;;;;;;;;;;27.52;63.81;101214.03;4986995;28;19914;-88
2022/07/30 02:25:18;;;;;;;;;;;;;;;27.48;64.00;101208.69;4958938;28;19937;-90
2022/07/30 02:27:44;;;;;;;;;;;;;;;27.48;63.82;101209.59;4992749;28;19913;-89
2022/07/30 02:30:09;;;;;;;;;;;;;;;27.47;64.12;101207.78;4976328;28;19964;-88
2022/07/30 02:32:36;;;;;;;;;;;;;;;27.52;63.85;101210.47;4995187;28;20575;-88
2022/07/30 02:35:04;;;;;;;;;;;;;;;27.50;63.89;101210.47;4984188;28;19913;-88
2022/07/30 02:37:31;;;;;;;;;;;;;;;27.51;63.73;101205.97;4963550;28;19914;-88
2022/07/30 02:39:56;;;;;;;;;;;;;;;27.50;63.92;101207.78;4975565;28;20005;-88
2022/07/30 02:42:22;;;;;;;;;;;;;;;27.50;63.75;101213.16;4954759;28;20021;-88
2022/07/30 02:44:48;;;;;;;;;;;;;;;27.50;63.97;101212.25;4975688;28;20020;-88
2022/07/30 02:47:15;;;;;;;;;;;;;;;27.49;63.53;101215.84;4959467;28;19921;-86
2022/07/30 02:49:41;;;;;;;;;;;;;;;27.50;63.66;101223.00;4959869;28;20288;-88
2022/07/30 02:52:07;;;;;;;;;;;;;;;27.48;63.67;101209.59;4972871;28;19968;-89
2022/07/30 02:54:33;;;;;;;;;;;;;;;27.49;63.57;101214.03;4975018;28;19913;-87
2022/07/30 02:56:59;;;;;;;;;;;;;;;27.48;63.40;101214.06;4959821;28;19936;-89
2022/07/30 02:59:25;;;;;;;;;;;;;;;27.47;63.69;101215.84;4976783;28;19953;-89
2022/07/30 03:01:50;;;;;;;;;;;;;;;27.46;63.46;101222.13;4986129;28;19921;-89
2022/07/30 03:04:18;;;;;;;;;;;;;;;27.45;63.77;101214.06;4991370;28;19929;-87
2022/07/30 03:06:43;;;;;;;;;;;;;;;27.47;63.42;101218.53;4987047;28;20000;-88
2022/07/30 03:09:08;;;;;;;;;;;;;;;27.46;63.53;101216.75;4983525;28;19953;-88
2022/07/30 03:11:34;;;;;;;;;;;;;;;27.45;63.32;101219.44;4975283;28;20284;-87
2022/07/30 03:13:59;;;;;;;;;;;;;;;27.46;63.43;101221.25;4978459;28;19914;-89
2022/07/30 03:16:25;;;;;;;;;;;;;;;27.47;63.28;101218.53;4992127;28;19914;-88
2022/07/30 03:18:50;;;;;;;;;;;;;;;27.46;63.23;101226.59;4970721;28;19914;-89
2022/07/30 03:21:16;;;;;;;;;;;;;;;27.44;63.30;101220.38;4982002;28;20005;-89
2022/07/30 03:23:41;;;;;;;;;;;;;;;27.47;63.17;101226.56;4975081;28;19973;-88
2022/07/30 03:26:07;;;;;;;;;;;;;;;27.44;63.25;101223.03;4991954;28;19924;-89
2022/07/30 03:28:35;;;;;;;;;;;;;;;27.46;63.29;101222.13;4975214;28;20008;-88
2022/07/30 03:31:01;;;;;;;;;;;;;;;27.43;63.25;101222.13;4975754;28;20322;-89
2022/07/30 03:33:26;;;;;;;;;;;;;;;27.44;63.25;101223.94;4991348;28;20387;-89
2022/07/30 03:35:52;;;;;;;;;;;;;;;27.42;63.38;101226.63;4975208;28;19957;-89
2022/07/30 03:38:17;;;;;;;;;;;;;;;27.45;63.15;101224.81;4973493;28;19922;-88
2022/07/30 03:40:43;;;;;;;;;;;;;;;27.30;63.01;101201.69;4962185;28;19921;-89
2022/07/30 03:43:09;;;;;;;;;;;;;;;27.41;63.45;101223.94;4976111;28;19914;-89
2022/07/30 03:45:37;;;;;;;;;;;;;;;27.39;63.20;101232.03;4992513;28;20008;-89
2022/07/30 03:48:04;;;;;;;;;;;;;;;27.39;63.33;101237.38;4992014;28;19913;-89
2022/07/30 03:50:29;;;;;;;;;;;;;;;27.39;63.48;101231.13;4979893;28;20057;-89
2022/07/30 03:52:55;;;;;;;;;;;;;;;27.38;63.66;101230.22;4991293;28;20012;-89
2022/07/30 03:55:20;;;;;;;;;;;;;;;27.38;63.43;101234.69;4990910;28;19921;-90
2022/07/30 03:57:46;;;;;;;;;;;;;;;27.36;63.56;101233.81;4975108;28;19913;-89
2022/07/30 04:00:13;;;;;;;;;;;;;;;27.38;63.64;101237.38;4991148;28;20292;-89
2022/07/30 04:02:43;;;;;;;;;;;;;;;27.38;63.33;101238.25;4991356;28;19936;-89
2022/07/30 04:05:13;;;;;;;;;;;;;;;27.36;63.60;101241.88;4975230;28;20498;-89
2022/07/30 04:07:40;;;;;;;;;;;;;;;27.37;63.51;101239.19;4975054;28;19914;-88
2022/07/30 04:10:05;;;;;;;;;;;;;;;27.39;63.55;101232.03;4978567;28;19918;-91
2022/07/30 04:12:32;;;;;;;;;;;;;;;27.38;63.64;101232.91;4971829;28;20307;-89
2022/07/30 04:14:57;;;;;;;;;;;;;;;27.37;63.50;101231.13;4969498;28;20358;-88
2022/07/30 04:17:34;;;;;;;;;;;;;;;27.35;63.55;101237.44;4992133;28;19952;-88
2022/07/30 04:20:29;;;;;;;;;;;;;;;27.35;63.50;101235.63;4991255;28;19913;-88
2022/07/30 04:22:55;;;;;;;;;;;;;;;27.36;63.64;101231.16;4972575;28;20406;-88
2022/07/30 04:25:20;;;;;;;;;;;;;;;27.34;63.68;101232.94;4990879;28;19913;-89
2022/07/30 04:27:46;;;;;;;;;;;;;;;27.33;63.79;101236.53;4980883;28;19918;-90
2022/07/30 04:30:12;;;;;;;;;;;;;;;27.33;63.62;101233.88;4967365;28;20487;-89
2022/07/30 04:32:39;;;;;;;;;;;;;;;27.31;63.75;101233.88;4991860;28;19925;-89
2022/07/30 04:35:05;;;;;;;;;;;;;;;27.30;63.74;101233.88;4974442;28;19918;-88
2022/07/30 04:37:30;;;;;;;;;;;;;;;27.31;63.77;101230.31;4987475;28;20411;-88
2022/07/30 04:39:58;;;;;;;;;;;;;;;27.30;63.60;101234.75;4987335;28;19913;-88
2022/07/30 04:42:24;;;;;;;;;;;;;;;27.31;63.34;101236.56;4974463;28;19914;-87
2022/07/30 04:44:50;;;;;;;;;;;;;;;27.32;63.48;101237.44;4977952;28;20398;-87
2022/07/30 04:47:18;;;;;;;;;;;;;;;27.33;63.54;101240.09;4996085;28;19914;-86
2022/07/30 04:49:44;;;;;;;;;;;;;;;27.30;63.76;101240.13;4973498;28;19921;-88
2022/07/30 04:52:10;;;;;;;;;;;;;;;27.28;63.54;101238.34;4976322;28;19941;-85
2022/07/30 04:55:02;;;;;;;;;;;;;;;27.27;63.76;101237.47;4994461;28;19953;-87
2022/07/30 04:57:27;;;;;;;;;;;;;;;27.24;64.08;101241.97;4985965;28;19914;-87
2022/07/30 04:59:53;;;;;;;;;;;;;;;27.22;64.24;101233.94;4974686;28;19914;-88
2022/07/30 05:02:19;;;;;;;;;;;;;;;27.25;63.74;101239.28;4976935;28;20016;-88
2022/07/30 05:04:44;;;;;;;;;;;;;;;27.21;64.29;101238.38;4995923;28;19914;-91
2022/07/30 05:07:12;;;;;;;;;;;;;;;27.20;64.39;101236.59;4993210;28;19957;-85
2022/07/30 05:09:38;;;;;;;;;;;;;;;27.24;64.08;101236.59;4979780;28;19914;-87
2022/07/30 05:12:03;;;;;;;;;;;;;;;27.18;64.33;101235.72;4976083;28;19924;-86
2022/07/30 05:14:29;;;;;;;;;;;;;;;27.14;64.43;101228.59;4995596;28;20358;-86
2022/07/30 05:16:54;;;;;;;;;;;;;;;27.16;64.37;101237.53;4991776;28;19957;-86
2022/07/30 05:19:20;;;;;;;;;;;;;;;27.13;64.66;101232.16;4974808;28;19969;-86
2022/07/30 05:21:45;;;;;;;;;;;;;;;27.15;64.64;101227.69;4972259;28;19918;-85
2022/07/30 05:24:10;;;;;;;;;;;;;;;27.16;64.78;101234.84;4995642;28;19972;-86
2022/07/30 05:26:36;;;;;;;;;;;;;;;27.14;64.78;101238.44;4995197;28;19914;-86
2022/07/30 05:29:01;;;;;;;;;;;;;;;27.17;64.54;101231.25;4977379;28;19921;-86
2022/07/30 05:31:27;;;;;;;;;;;;;;;27.13;64.80;101232.16;4994245;28;20400;-86
2022/07/30 05:33:52;;;;;;;;;;;;;;;27.13;64.50;101234.84;4992932;28;19914;-85
2022/07/30 05:36:19;;;;;;;;;;;;;;;27.15;64.54;101232.16;4974834;28;19931;-86
2022/07/30 05:38:44;;;;;;;;;;;;;;;27.13;64.54;101237.53;4975272;28;19914;-83
2022/07/30 05:41:09;;;;;;;;;;;;;;;27.13;64.64;101240.22;4985907;28;20376;-83
2022/07/30 05:43:35;;;;;;;;;;;;;;;27.13;64.72;101233.97;4995051;28;19917;-83
2022/07/30 05:46:00;;;;;;;;;;;;;;;27.13;64.59;101236.66;4986649;28;19953;-84
2022/07/30 05:48:26;;;;;;;;;;;;;;;27.13;64.82;101233.97;4980881;28;19922;-84
2022/07/30 05:50:52;;;;;;;;;;;;;;;27.17;64.56;101233.03;4986799;28;19926;-84
2022/07/30 05:53:18;;;;;;;;;;;;;;;27.14;64.34;101230.41;4992331;28;19979;-85
2022/07/30 05:55:43;;;;;;;;;;;;;;;27.12;64.21;101237.56;4976273;28;19957;-84
2022/07/30 05:58:08;;;;;;;;;;;;;;;27.13;64.70;101234.84;4994262;28;19945;-85
2022/07/30 06:00:34;;;;;;;;;;;;;;;27.15;64.48;101235.72;4994923;28;20033;-85
2022/07/30 06:03:00;;;;;;;;;;;;;;;27.16;64.34;101237.53;4993684;28;20316;-86
2022/07/30 06:05:26;;;;;;;;;;;;;;;27.15;64.45;101237.53;4992673;28;19944;-84
2022/07/30 06:07:54;;;;;;;;;;;;;;;27.17;64.22;101239.28;4989442;28;19918;-83
2022/07/30 06:10:19;;;;;;;;;;;;;;;27.17;64.43;101239.28;4983503;28;20001;-84
2022/07/30 06:12:45;;;;;;;;;;;;;;;27.20;64.19;101241.09;4990908;28;20603;-84
2022/07/30 06:15:11;;;;;;;;;;;;;;;27.21;64.23;101235.69;4991099;28;19930;-85
2022/07/30 06:17:43;;;;;;;;;;;;;;;27.21;64.08;101235.69;4976305;28;19917;-85
2022/07/30 06:20:09;;;;;;;;;;;;;;;27.24;63.93;101237.47;4995959;28;19914;-84
2022/07/30 06:22:35;;;;;;;;;;;;;;;27.21;64.39;101230.31;4984079;28;19989;-86
2022/07/30 06:25:01;;;;;;;;;;;;;;;27.23;64.30;101233.03;4979380;28;19957;-86
2022/07/30 06:27:27;;;;;;;;;;;;;;;27.30;63.96;101226.72;4961277;28;19914;-86
2022/07/30 06:29:53;;;;;;;;;;;;;;;27.27;64.01;101229.44;4975879;28;19914;-85
2022/07/30 06:32:18;;;;;;;;;;;;;;;27.30;63.83;101225.81;4979151;28;19914;-84
2022/07/30 06:34:44;;;;;;;;;;;;;;;27.31;63.83;101224.94;4975842;28;19922;-87
2022/07/30 06:37:14;;;;;;;;;;;;;;;27.31;63.74;101224.94;4979470;28;19953;-85
2022/07/30 06:39:39;;;;;;;;;;;;;;;27.30;63.76;101224.03;4975213;28;19925;-84
2022/07/30 06:42:05;;;;;;;;;;;;;;;27.37;63.92;101224.91;4974876;28;19918;-85
2022/07/30 06:44:30;;;;;;;;;;;;;;;27.35;63.60;101213.28;4979552;28;19914;-85
2022/07/30 06:46:56;;;;;;;;;;;;;;;27.34;63.84;101219.53;4981967;28;19925;-85
2022/07/30 06:49:21;;;;;;;;;;;;;;;27.38;63.52;101216.81;4973266;28;19921;-84
2022/07/30 06:51:47;;;;;;;;;;;;;;;27.35;63.30;101214.16;4992656;28;20017;-85
2022/07/30 06:54:13;;;;;;;;;;;;;;;27.41;63.55;101215.88;4983877;28;19918;-85
2022/07/30 06:56:38;;;;;;;;;;;;;;;27.43;63.34;101222.13;4982286;28;19918;-84
2022/07/30 06:59:03;;;;;;;;;;;;;;;27.41;63.44;101222.16;4981374;28;19918;-85
2022/07/30 07:01:29;;;;;;;;;;;;;;;27.43;63.43;101216.75;4989263;28;19918;-83
2022/07/30 07:03:54;;;;;;;;;;;;;;;27.44;63.33;101223.03;4989877;28;19922;-86
2022/07/30 07:06:20;;;;;;;;;;;;;;;27.41;63.31;101223.94;4991939;28;20358;-84
2022/07/30 07:08:45;;;;;;;;;;;;;;;27.46;63.45;101223.91;4990924;28;19948;-84
2022/07/30 07:11:14;;;;;;;;;;;;;;;27.44;63.29;101221.25;4982239;28;19922;-87
2022/07/30 07:13:40;;;;;;;;;;;;;;;27.43;63.30;101216.75;4960501;28;20411;-86
2022/07/30 07:16:05;;;;;;;;;;;;;;;27.44;63.73;101217.69;4961765;28;19945;-86
2022/07/30 07:18:31;;;;;;;;;;;;;;;27.49;63.36;101222.09;4972037;28;19924;-86
2022/07/30 07:20:56;;;;;;;;;;;;;;;27.49;63.57;101227.44;4980064;28;19918;-85
2022/07/30 07:23:22;;;;;;;;;;;;;;;27.52;63.55;101234.59;4977996;28;19925;-84
2022/07/30 07:25:50;;;;;;;;;;;;;;;27.51;63.86;101230.13;4974241;28;19980;-85
2022/07/30 07:28:21;;;;;;;;;;;;;;;27.51;63.63;101231.00;4976930;28;19918;-85
2022/07/30 07:30:47;;;;;;;;;;;;;;;27.52;63.48;101232.81;4975020;28;19918;-83
2022/07/30 07:33:12;;;;;;;;;;;;;;;27.48;63.29;101232.84;4973409;28;19972;-85
2022/07/30 07:35:38;;;;;;;;;;;;;;;27.53;63.43;101234.56;4988596;28;20019;-85
2022/07/30 07:38:06;;;;;;;;;;;;;;;27.51;63.53;101230.13;4985258;28;19925;-87
2022/07/30 07:40:33;;;;;;;;;;;;;;;27.45;63.64;101230.16;4963494;28;19917;-85
2022/07/30 07:42:59;;;;;;;;;;;;;;;27.45;63.75;101233.72;4975321;28;19914;-85
2022/07/30 07:45:26;;;;;;;;;;;;;;;27.50;63.91;101229.25;4987197;28;19924;-86
2022/07/30 07:48:16;;;;;;;;;;;;;;;27.52;63.88;101231.91;4978505;28;19920;-85
2022/07/30 07:50:42;;;;;;;;;;;;;;;27.53;63.82;101231.88;4984719;28;20009;-87
2022/07/30 07:53:08;;;;;;;;;;;;;;;27.52;63.98;101227.44;4979824;28;20016;-85
2022/07/30 07:55:41;;;;;;;;;;;;;;;27.53;63.69;101226.50;4976303;28;20520;-87
2022/07/30 07:58:07;;;;;;;;;;;;;;;27.51;63.63;101224.75;4994952;28;19918;-89
2022/07/30 08:00:32;;;;;;;;;;;;;;;27.47;64.06;101226.56;4972502;28;19972;-85
2022/07/30 08:02:58;;;;;;;;;;;;;;;27.52;64.02;101231.91;4987042;28;20388;-85
2022/07/30 08:05:25;;;;;;;;;;;;;;;27.54;64.04;101238.16;4979947;28;19921;-87
2022/07/30 08:07:50;;;;;;;;;;;;;;;27.54;64.17;101238.16;4991088;28;19918;-83
2022/07/30 08:10:18;;;;;;;;;;;;;;;27.51;63.63;101235.50;4979005;28;19914;-85
2022/07/30 08:12:43;;;;;;;;;;;;;;;27.51;64.21;101231.00;4992893;28;19925;-87
2022/07/30 08:15:16;;;;;;;;;;;;;;;27.55;64.08;101221.16;4976234;28;19914;-86
2022/07/30 08:17:45;;;;;;;;;;;;;;;27.57;64.02;101224.72;4996220;28;19940;-86
2022/07/30 08:20:11;;;;;;;;;;;;;;;27.55;63.90;101222.03;4994539;28;20005;-87
2022/07/30 08:22:37;;;;;;;;;;;;;;;27.51;64.12;101220.28;4991338;28;19928;-86
2022/07/30 08:25:03;;;;;;;;;;;;;;;27.55;64.09;101222.03;4980750;28;20008;-87
2022/07/30 08:27:29;;;;;;;;;;;;;;;27.52;63.88;101223.88;5000028;28;19914;-85
2022/07/30 08:29:54;;;;;;;;;;;;;;;27.54;63.73;101225.63;4992973;28;19921;-85
2022/07/30 08:32:20;;;;;;;;;;;;;;;27.52;64.26;101221.19;4995231;28;19924;-84
2022/07/30 08:34:45;;;;;;;;;;;;;;;27.57;64.44;101217.53;4995405;28;20005;-83
2022/07/30 08:37:11;;;;;;;;;;;;;;;27.57;64.66;101216.66;4994917;28;19913;-84
2022/07/30 08:39:36;;;;;;;;;;;;;;;27.57;64.29;101217.53;4991845;28;20694;-84
2022/07/30 08:42:02;;;;;;;;;;;;;;;27.57;64.09;101212.16;4989274;28;20327;-84
2022/07/30 08:44:28;;;;;;;;;;;;;;;27.55;64.35;101200.56;4995119;28;19964;-85
2022/07/30 08:46:55;;;;;;;;;;;;;;;27.52;64.38;101195.25;4987129;28;19961;-84
2022/07/30 08:49:20;;;;;;;;;;;;;;;27.57;64.32;101197.88;4994160;28;20394;-86
2022/07/30 08:51:46;;;;;;;;;;;;;;;27.56;64.21;101199.69;4989403;28;19922;-84
2022/07/30 08:54:11;;;;;;;;;;;;;;;27.52;64.33;101195.25;4986191;28;20020;-85
2022/07/30 08:56:37;;;;;;;;;;;;;;;27.54;64.31;101189.88;4994176;28;20375;-85
2022/07/30 08:59:02;;;;;;;;;;;;;;;27.58;64.03;101191.59;4994553;28;19921;-84
2022/07/30 09:01:28;;;;;;;;;;;;;;;27.59;64.35;101196.06;4988336;28;20346;-84
2022/07/30 09:03:53;;;;;;;;;;;;;;;27.61;64.14;101196.94;4992493;28;19924;-85
2022/07/30 09:06:19;;;;;;;;;;;;;;;27.59;64.00;101196.94;4984542;28;19926;-85
2022/07/30 09:08:44;;;;;;;;;;;;;;;27.59;64.04;101186.22;4989832;28;19918;-85
2022/07/30 09:11:10;;;;;;;;;;;;;;;27.52;64.66;101191.69;4994540;28;19914;-84
2022/07/30 09:13:36;;;;;;;;;;;;;;;27.56;64.37;101196.13;4992654;28;19945;-85
2022/07/30 09:16:02;;;;;;;;;;;;;;;27.58;64.14;101192.50;4993598;28;19920;-85
2022/07/30 09:18:35;;;;;;;;;;;;;;;27.57;64.41;101193.41;4979689;28;19918;-85
2022/07/30 09:21:01;;;;;;;;;;;;;;;27.60;64.15;101185.34;4996755;28;19917;-85
2022/07/30 09:23:27;;;;;;;;;;;;;;;27.59;64.06;101180.84;4993304;28;19969;-86
2022/07/30 09:25:53;;;;;;;;;;;;;;;27.57;64.39;101184.47;4988912;28;20469;-84
2022/07/30 09:28:30;;;;;;;;;;;;;;;27.59;64.36;101188.03;4989730;28;19925;-84
2022/07/30 09:30:56;;;;;;;;;;;;;;;27.60;64.44;101179.06;4966915;28;19929;-85
2022/07/30 09:33:31;;;;;;;;;;;;;;;27.64;64.34;101174.56;4975020;28;19918;-83
2022/07/30 09:35:57;;;;;;;;;;;;;;;27.63;64.30;101181.72;4992548;28;20073;-84
2022/07/30 09:38:22;;;;;;;;;;;;;;;27.60;64.45;101176.38;4988080;28;19976;-85
2022/07/30 09:40:54;;;;;;;;;;;;;;;27.62;64.92;101177.25;4991547;28;19949;-84
2022/07/30 09:43:21;;;;;;;;;;;;;;;27.64;64.35;101172.75;4994149;28;19918;-84
2022/07/30 09:45:50;;;;;;;;;;;;;;;27.65;64.48;101162.94;4991939;28;19944;-83
2022/07/30 09:48:19;;;;;;;;;;;;;;;27.61;64.62;101168.31;4977298;28;19996;-84
2022/07/30 09:50:53;;;;;;;;;;;;;;;27.65;64.70;101168.31;4976675;28;19961;-84
2022/07/30 09:53:18;;;;;;;;;;;;;;;27.62;64.47;101166.50;4976705;28;19957;-84
2022/07/30 09:55:44;;;;;;;;;;;;;;;27.65;64.42;101162.94;4970758;28;19964;-84
2022/07/30 09:58:10;;;;;;;;;;;;;;;27.67;64.30;101163.81;4968074;28;19917;-84
2022/07/30 10:00:39;;;;;;;;;;;;;;;27.63;64.72;101162.94;4991665;28;20000;-83
2022/07/30 10:03:17;;;;;;;;;;;;;;;27.69;64.35;101164.69;4973584;28;19917;-84
2022/07/30 10:05:49;;;;;;;;;;;;;;;27.68;65.05;101163.75;4955531;28;20469;-83
2022/07/30 10:08:14;;;;;;;;;;;;;;;27.67;64.32;101164.69;4988546;28;19953;-83
2022/07/30 10:10:40;;;;;;;;;;;;;;;27.67;64.50;101166.50;4964004;28;19949;-83
2022/07/30 10:13:12;;;;;;;;;;;;;;;27.69;64.63;101156.63;4972416;28;19921;-83
2022/07/30 10:15:38;;;;;;;;;;;;;;;27.69;64.97;101160.19;4988418;28;19921;-84
2022/07/30 10:18:04;;;;;;;;;;;;;;;27.70;64.31;101164.63;4987617;28;19914;-83
2022/07/30 10:20:29;;;;;;;;;;;;;;;27.72;64.88;101153.91;4973968;28;19913;-83
2022/07/30 10:22:55;;;;;;;;;;;;;;;27.74;64.45;101152.97;4990285;28;20303;-82
2022/07/30 10:25:21;;;;;;;;;;;;;;;27.68;64.53;101150.34;4974622;28;19917;-83
2022/07/30 10:27:47;;;;;;;;;;;;;;;27.71;64.76;101150.34;4967344;28;20008;-83
2022/07/30 10:30:13;;;;;;;;;;;;;;;27.67;64.94;101145.03;4984214;28;20009;-83
2022/07/30 10:32:38;;;;;;;;;;;;;;;27.72;64.83;101145.84;4956404;28;20423;-84
2022/07/30 10:35:07;;;;;;;;;;;;;;;27.73;64.95;101139.56;4970996;28;20004;-84
2022/07/30 10:37:33;;;;;;;;;;;;;;;27.75;64.31;101135.06;4991683;28;20587;-84
2022/07/30 10:40:03;;;;;;;;;;;;;;;27.74;64.45;101142.22;4959910;28;19983;-84
2022/07/30 10:42:43;;;;;;;;;;;;;;;27.75;64.59;101133.28;4958879;28;19922;-83
2022/07/30 10:45:21;;;;;;;;;;;;;;;27.71;64.58;101134.25;4980737;28;19995;-83
2022/07/30 10:47:47;;;;;;;;;;;;;;;27.70;64.90;101136.94;4975402;28;20375;-84
2022/07/30 10:50:14;;;;;;;;;;;;;;;27.69;64.99;101140.53;4972656;28;19929;-84
2022/07/30 10:52:53;;;;;;;;;;;;;;;27.72;65.51;101133.31;4973959;28;19957;-84
2022/07/30 10:55:25;;;;;;;;;;;;;;;27.76;64.64;101134.19;4958967;28;20375;-85
2022/07/30 10:58:03;;;;;;;;;;;;;;;27.79;64.83;101134.13;4970573;28;19913;-84
2022/07/30 11:00:36;;;;;;;;;;;;;;;27.81;64.64;101135.91;4992498;28;19921;-85
2022/07/30 11:03:12;;;;;;;;;;;;;;;27.80;64.51;101128.75;4975396;28;19917;-83
2022/07/30 11:05:37;;;;;;;;;;;;;;;27.81;64.57;101135.91;4992546;28;19938;-85
2022/07/30 11:08:22;;;;;;;;;;;;;;;27.79;64.55;101126.06;4975060;28;19914;-85
2022/07/30 11:11:06;;;;;;;;;;;;;;;;;;;;;
2022/07/30 11:13:52;;;;;;;;;;;;;;;27.79;64.66;101124.31;4990190;28;19918;-84
2022/07/30 11:16:19;;;;;;;;;;;;;;;27.79;64.72;101126.06;4975743;28;19921;-84
2022/07/30 11:19:04;;;;;;;;;;;;;;;27.85;64.53;101135.88;4975489;28;19914;-85
2022/07/30 11:21:31;;;;;;;;;;;;;;;27.84;64.73;101126.06;4974683;28;19944;-85
2022/07/30 11:23:56;;;;;;;;;;;;;;;27.87;64.51;101124.22;4954343;28;20320;-84
2022/07/30 11:26:51;;;;;;;;;;;;;;;27.75;64.51;101100.19;4983171;28;19914;-84
2022/07/30 11:29:36;;;;;;;;;;;;;;;27.86;65.11;101116.22;4967287;28;19945;-84
2022/07/30 11:32:39;;;;;;;;;;;;;;;27.87;65.16;101120.66;4973759;28;19929;-84
2022/07/30 11:35:15;;;;;;;;;;;;;;;27.85;64.30;101112.59;4933038;29;19915;-84
2022/07/30 11:37:52;;;;;;;;;;;;;;;27.87;64.86;101108.13;4931293;29;20479;-84
2022/07/30 11:40:18;;;;;;;;;;;;;;;27.88;64.44;101115.28;4961088;28;20035;-84
2022/07/30 11:42:43;;;;;;;;;;;;;;;27.93;64.29;101109.84;4958783;28;20407;-85
2022/07/30 11:45:15;;;;;;;;;;;;;;;27.90;64.70;101110.78;4991277;28;19914;-83
2022/07/30 11:47:48;;;;;;;;;;;;;;;27.90;64.73;101108.09;4993502;28;19914;-84
2022/07/30 11:50:17;;;;;;;;;;;;;;;27.93;64.51;101110.75;4970767;28;19930;-84
2022/07/30 11:52:43;;;;;;;;;;;;;;;27.95;64.31;101106.25;4985358;28;19918;-84
2022/07/30 11:55:08;;;;;;;;;;;;;;;27.92;64.40;101103.59;4992117;28;19925;-84
2022/07/30 11:57:41;;;;;;;;;;;;;;;27.95;64.26;101098.19;4975773;28;19914;-85
2022/07/30 12:00:07;;;;;;;;;;;;;;;27.96;64.45;101097.28;4992962;28;19961;-84
2022/07/30 12:02:32;;;;;;;;;;;;;;;27.96;64.34;101096.38;4986515;28;19917;-84
2022/07/30 12:04:57;;;;;;;;;;;;;;;27.97;64.69;101101.75;4979370;28;19914;-84
2022/07/30 12:07:25;;;;;;;;;;;;;;;27.96;64.74;101099.06;4994142;28;19921;-84
2022/07/30 12:09:53;;;;;;;;;;;;;;;27.97;64.29;101099.06;4993091;28;19918;-84
2022/07/30 12:12:23;;;;;;;;;;;;;;;27.97;64.27;101098.19;4975725;28;19926;-84
2022/07/30 12:14:49;;;;;;;;;;;;;;;27.99;64.29;101099.94;4964391;28;19919;-85
2022/07/30 12:17:15;;;;;;;;;;;;;;;27.99;64.07;101102.59;4993548;28;20462;-84
2022/07/30 12:19:44;;;;;;;;;;;;;;;28.00;64.48;101100.81;4982992;28;19926;-83
2022/07/30 12:22:12;;;;;;;;;;;;;;;28.03;64.17;101103.47;4969984;28;19914;-82
2022/07/30 12:24:37;;;;;;;;;;;;;;;28.07;64.44;101090.88;4983896;28;20401;-85
2022/07/30 12:27:06;;;;;;;;;;;;;;;28.08;64.25;101090.84;4986394;28;19947;-86
2022/07/30 12:29:35;;;;;;;;;;;;;;;28.07;64.22;101088.19;4987741;28;19950;-85
2022/07/30 12:32:00;;;;;;;;;;;;;;;28.07;64.41;101082.81;4987522;28;19940;-86
2022/07/30 12:34:32;;;;;;;;;;;;;;;28.06;64.38;101081.94;4988984;28;19922;-86
2022/07/30 12:37:12;;;;;;;;;;;;;;;28.07;64.37;101081.03;4976254;28;19918;-85
2022/07/30 12:39:40;;;;;;;;;;;;;;;28.11;64.49;101077.41;4971733;28;20001;-86
2022/07/30 12:42:05;;;;;;;;;;;;;;;28.11;64.27;101077.41;4989835;28;20008;-87